sensor_id;sensor_type;location;lat;lon;timestamp;temperature;humidity
41904;DHT22;27586;51.124;4.182;2024-03-23T00:54:19;8.20;99.90
41904;DHT22;27586;51.124;4.182;2024-03-23T00:56:45;8.20;99.90
41904;DHT22;27586;51.124;4.182;2024-03-23T00:59:10;8.00;99.90
41904;DHT22;27586;51.124;4.182;2024-03-23T01:01:37;8.00;99.90
41904;DHT22;27586;51.124;4.182;2024-03-23T01:04:03;7.90;99.90
41904;DHT22;27586;51.124;4.182;2024-03-23T01:06:28;7.80;99.90
41904;DHT22;27586;51.124;4.182;2024-03-23T01:08:54;7.80;99.90
41904;DHT22;27586;51.124;4.182;2024-03-23T01:11:19;7.70;99.90
41904;DHT22;27586;51.124;4.182;2024-03-23T01:13:45;7.60;99.90
41904;DHT22;27586;51.124;4.182;2024-03-23T01:16:11;7.50;99.90
41904;DHT22;27586;51.124;4.182;2024-03-23T01:18:36;7.50;99.90
41904;DHT22;27586;51.124;4.182;2024-03-23T01:21:02;7.40;99.90
41904;DHT22;27586;51.124;4.182;2024-03-23T01:23:28;7.40;99.90
41904;DHT22;27586;51.124;4.182;2024-03-23T01:25:54;7.40;99.90
41904;DHT22;27586;51.124;4.182;2024-03-23T01:28:20;7.30;99.90
41904;DHT22;27586;51.124;4.182;2024-03-23T01:30:46;7.30;99.90
41904;DHT22;27586;51.124;4.182;2024-03-23T01:33:12;7.20;99.90
41904;DHT22;27586;51.124;4.182;2024-03-23T01:35:38;7.20;99.90
41904;DHT22;27586;51.124;4.182;2024-03-23T01:38:04;7.30;99.90
41904;DHT22;27586;51.124;4.182;2024-03-23T01:40:29;7.30;99.90
41904;DHT22;27586;51.124;4.182;2024-03-23T01:43:05;7.30;99.90
41904;DHT22;27586;51.124;4.182;2024-03-23T01:45:31;7.40;99.90
41904;DHT22;27586;51.124;4.182;2024-03-23T01:47:57;7.50;99.90
41904;DHT22;27586;51.124;4.182;2024-03-23T01:50:23;7.60;99.90
41904;DHT22;27586;51.124;4.182;2024-03-23T01:52:49;7.70;99.90
41904;DHT22;27586;51.124;4.182;2024-03-23T01:55:15;7.70;99.90
41904;DHT22;27586;51.124;4.182;2024-03-23T01:57:41;7.70;99.90
41904;DHT22;27586;51.124;4.182;2024-03-23T02:00:07;7.80;99.90
41904;DHT22;27586;51.124;4.182;2024-03-23T02:02:35;7.90;99.90
41904;DHT22;27586;51.124;4.182;2024-03-23T02:05:00;8.00;99.90
41904;DHT22;27586;51.124;4.182;2024-03-23T02:07:26;8.00;99.90
41904;DHT22;27586;51.124;4.182;2024-03-23T02:09:52;8.00;99.90
41904;DHT22;27586;51.124;4.182;2024-03-23T02:12:18;8.00;99.90
41904;DHT22;27586;51.124;4.182;2024-03-23T02:14:44;7.80;99.90
41904;DHT22;27586;51.124;4.182;2024-03-23T02:17:10;7.80;99.90
41904;DHT22;27586;51.124;4.182;2024-03-23T02:19:36;7.70;99.90
41904;DHT22;27586;51.124;4.182;2024-03-23T02:22:01;7.60;99.90
41904;DHT22;27586;51.124;4.182;2024-03-23T02:24:29;7.50;99.90
41904;DHT22;27586;51.124;4.182;2024-03-23T02:26:55;7.40;99.90
41904;DHT22;27586;51.124;4.182;2024-03-23T02:29:20;7.40;99.90
41904;DHT22;27586;51.124;4.182;2024-03-23T02:31:46;7.30;99.90
41904;DHT22;27586;51.124;4.182;2024-03-23T02:34:11;7.30;99.90
41904;DHT22;27586;51.124;4.182;2024-03-23T02:36:37;7.20;99.90
41904;DHT22;27586;51.124;4.182;2024-03-23T02:39:03;7.20;99.90
41904;DHT22;27586;51.124;4.182;2024-03-23T02:41:28;7.10;99.90
41904;DHT22;27586;51.124;4.182;2024-03-23T02:43:54;7.00;99.90
41904;DHT22;27586;51.124;4.182;2024-03-23T02:46:20;6.90;99.90
41904;DHT22;27586;51.124;4.182;2024-03-23T02:48:48;6.80;99.90
41904;DHT22;27586;51.124;4.182;2024-03-23T02:51:14;6.80;99.90
41904;DHT22;27586;51.124;4.182;2024-03-23T02:53:40;6.80;99.90
41904;DHT22;27586;51.124;4.182;2024-03-23T02:56:06;6.90;99.90
41904;DHT22;27586;51.124;4.182;2024-03-23T02:58:32;6.90;99.90
41904;DHT22;27586;51.124;4.182;2024-03-23T03:00:58;6.90;99.90
41904;DHT22;27586;51.124;4.182;2024-03-23T03:03:24;6.90;99.90
41904;DHT22;27586;51.124;4.182;2024-03-23T03:05:56;6.90;99.90
41904;DHT22;27586;51.124;4.182;2024-03-23T03:08:21;7.00;99.90
41904;DHT22;27586;51.124;4.182;2024-03-23T03:10:47;6.90;99.90
41904;DHT22;27586;51.124;4.182;2024-03-23T03:13:13;6.90;99.90
41904;DHT22;27586;51.124;4.182;2024-03-23T03:15:43;6.90;99.90
41904;DHT22;27586;51.124;4.182;2024-03-23T03:18:08;6.90;99.90
41904;DHT22;27586;51.124;4.182;2024-03-23T03:20:40;6.80;99.90
41904;DHT22;27586;51.124;4.182;2024-03-23T03:23:06;6.70;99.90
41904;DHT22;27586;51.124;4.182;2024-03-23T03:25:32;6.70;99.90
41904;DHT22;27586;51.124;4.182;2024-03-23T03:27:58;6.60;99.90
41904;DHT22;27586;51.124;4.182;2024-03-23T03:30:23;6.60;99.90
41904;DHT22;27586;51.124;4.182;2024-03-23T03:32:50;6.50;99.90
41904;DHT22;27586;51.124;4.182;2024-03-23T03:35:16;6.50;99.90
41904;DHT22;27586;51.124;4.182;2024-03-23T03:37:42;6.50;99.90
41904;DHT22;27586;51.124;4.182;2024-03-23T03:40:07;6.50;99.90
41904;DHT22;27586;51.124;4.182;2024-03-23T03:42:34;6.50;99.90
41904;DHT22;27586;51.124;4.182;2024-03-23T03:45:00;6.50;99.90
41904;DHT22;27586;51.124;4.182;2024-03-23T03:47:26;6.60;99.90
41904;DHT22;27586;51.124;4.182;2024-03-23T03:49:52;6.60;99.90
41904;DHT22;27586;51.124;4.182;2024-03-23T03:52:17;6.60;99.90
41904;DHT22;27586;51.124;4.182;2024-03-23T03:54:43;6.60;99.90
41904;DHT22;27586;51.124;4.182;2024-03-23T03:57:08;6.60;99.90
41904;DHT22;27586;51.124;4.182;2024-03-23T03:59:34;6.50;99.90
41904;DHT22;27586;51.124;4.182;2024-03-23T04:02:00;6.60;99.90
41904;DHT22;27586;51.124;4.182;2024-03-23T04:04:25;6.80;99.90
41904;DHT22;27586;51.124;4.182;2024-03-23T04:07:01;6.90;99.90
41904;DHT22;27586;51.124;4.182;2024-03-23T04:09:27;6.90;99.90
41904;DHT22;27586;51.124;4.182;2024-03-23T04:11:53;7.00;99.90
41904;DHT22;27586;51.124;4.182;2024-03-23T04:14:19;7.00;99.90
41904;DHT22;27586;51.124;4.182;2024-03-23T04:16:45;7.10;99.90
41904;DHT22;27586;51.124;4.182;2024-03-23T04:19:11;7.00;99.90
41904;DHT22;27586;51.124;4.182;2024-03-23T04:21:37;7.00;99.90
41904;DHT22;27586;51.124;4.182;2024-03-23T04:24:04;7.00;99.90
41904;DHT22;27586;51.124;4.182;2024-03-23T04:26:29;7.00;99.90
41904;DHT22;27586;51.124;4.182;2024-03-23T04:28:55;6.90;99.90
41904;DHT22;27586;51.124;4.182;2024-03-23T04:31:20;6.90;99.90
41904;DHT22;27586;51.124;4.182;2024-03-23T04:33:47;6.90;99.90
41904;DHT22;27586;51.124;4.182;2024-03-23T04:36:13;6.90;99.90
41904;DHT22;27586;51.124;4.182;2024-03-23T04:38:38;6.80;99.90
41904;DHT22;27586;51.124;4.182;2024-03-23T04:41:04;6.80;99.90
41904;DHT22;27586;51.124;4.182;2024-03-23T04:43:30;6.70;99.90
41904;DHT22;27586;51.124;4.182;2024-03-23T04:45:56;6.70;99.90
41904;DHT22;27586;51.124;4.182;2024-03-23T04:48:22;6.60;99.90
41904;DHT22;27586;51.124;4.182;2024-03-23T04:50:49;6.60;99.90
41904;DHT22;27586;51.124;4.182;2024-03-23T04:53:15;6.60;99.90
41904;DHT22;27586;51.124;4.182;2024-03-23T04:55:44;6.60;99.90
41904;DHT22;27586;51.124;4.182;2024-03-23T04:58:10;6.60;99.90
41904;DHT22;27586;51.124;4.182;2024-03-23T05:00:35;6.50;99.90
41904;DHT22;27586;51.124;4.182;2024-03-23T05:03:01;6.40;99.90
41904;DHT22;27586;51.124;4.182;2024-03-23T05:05:27;6.30;99.90
41904;DHT22;27586;51.124;4.182;2024-03-23T05:07:52;6.20;99.90
41904;DHT22;27586;51.124;4.182;2024-03-23T05:10:18;6.30;99.90
41904;DHT22;27586;51.124;4.182;2024-03-23T05:12:44;6.30;99.90
41904;DHT22;27586;51.124;4.182;2024-03-23T05:15:11;6.40;99.90
41904;DHT22;27586;51.124;4.182;2024-03-23T05:17:37;6.40;99.90
41904;DHT22;27586;51.124;4.182;2024-03-23T05:20:04;6.40;99.90
41904;DHT22;27586;51.124;4.182;2024-03-23T05:22:35;6.40;99.90
41904;DHT22;27586;51.124;4.182;2024-03-23T05:25:01;6.50;99.90
41904;DHT22;27586;51.124;4.182;2024-03-23T05:27:29;6.50;99.90
41904;DHT22;27586;51.124;4.182;2024-03-23T05:29:55;6.60;99.90
41904;DHT22;27586;51.124;4.182;2024-03-23T05:32:21;6.60;99.90
41904;DHT22;27586;51.124;4.182;2024-03-23T05:34:46;6.70;99.90
41904;DHT22;27586;51.124;4.182;2024-03-23T05:37:12;6.70;99.90
41904;DHT22;27586;51.124;4.182;2024-03-23T05:39:37;6.80;99.90
41904;DHT22;27586;51.124;4.182;2024-03-23T05:42:03;6.80;99.90
41904;DHT22;27586;51.124;4.182;2024-03-23T05:44:29;6.80;99.90
41904;DHT22;27586;51.124;4.182;2024-03-23T05:46:54;6.80;99.90
41904;DHT22;27586;51.124;4.182;2024-03-23T05:49:20;6.80;99.90
41904;DHT22;27586;51.124;4.182;2024-03-23T05:51:46;6.80;99.90
41904;DHT22;27586;51.124;4.182;2024-03-23T05:54:12;6.70;99.90
41904;DHT22;27586;51.124;4.182;2024-03-23T05:56:38;6.70;99.90
41904;DHT22;27586;51.124;4.182;2024-03-23T05:59:03;6.70;99.90
41904;DHT22;27586;51.124;4.182;2024-03-23T06:01:29;6.70;99.90
41904;DHT22;27586;51.124;4.182;2024-03-23T06:03:58;6.70;99.90
41904;DHT22;27586;51.124;4.182;2024-03-23T06:06:23;6.60;99.90
41904;DHT22;27586;51.124;4.182;2024-03-23T06:08:49;6.70;99.90
41904;DHT22;27586;51.124;4.182;2024-03-23T06:11:14;6.60;99.90
41904;DHT22;27586;51.124;4.182;2024-03-23T06:13:40;6.60;99.90
41904;DHT22;27586;51.124;4.182;2024-03-23T06:16:06;6.60;99.90
41904;DHT22;27586;51.124;4.182;2024-03-23T06:18:32;6.60;99.90
41904;DHT22;27586;51.124;4.182;2024-03-23T06:20:58;6.50;99.90
41904;DHT22;27586;51.124;4.182;2024-03-23T06:23:24;6.50;99.90
41904;DHT22;27586;51.124;4.182;2024-03-23T06:25:49;6.60;99.90
41904;DHT22;27586;51.124;4.182;2024-03-23T06:28:15;6.70;99.90
41904;DHT22;27586;51.124;4.182;2024-03-23T06:30:41;6.70;99.90
41904;DHT22;27586;51.124;4.182;2024-03-23T06:33:06;6.80;99.90
41904;DHT22;27586;51.124;4.182;2024-03-23T06:35:32;6.90;99.90
41904;DHT22;27586;51.124;4.182;2024-03-23T06:37:57;6.80;99.90
41904;DHT22;27586;51.124;4.182;2024-03-23T06:40:26;6.90;99.90
41904;DHT22;27586;51.124;4.182;2024-03-23T06:42:51;6.90;99.90
41904;DHT22;27586;51.124;4.182;2024-03-23T06:45:17;6.90;99.90
41904;DHT22;27586;51.124;4.182;2024-03-23T06:47:48;7.00;99.90
41904;DHT22;27586;51.124;4.182;2024-03-23T06:50:14;7.10;99.90
41904;DHT22;27586;51.124;4.182;2024-03-23T06:52:40;7.20;99.90
41904;DHT22;27586;51.124;4.182;2024-03-23T06:55:06;7.30;99.90
41904;DHT22;27586;51.124;4.182;2024-03-23T06:57:32;7.40;99.90
41904;DHT22;27586;51.124;4.182;2024-03-23T06:59:57;7.60;99.90
41904;DHT22;27586;51.124;4.182;2024-03-23T07:02:23;7.60;99.90
41904;DHT22;27586;51.124;4.182;2024-03-23T07:04:48;7.90;99.90
41904;DHT22;27586;51.124;4.182;2024-03-23T07:07:14;8.10;99.90
41904;DHT22;27586;51.124;4.182;2024-03-23T07:09:40;8.20;99.90
41904;DHT22;27586;51.124;4.182;2024-03-23T07:12:05;8.30;99.90
41904;DHT22;27586;51.124;4.182;2024-03-23T07:14:31;8.40;99.90
41904;DHT22;27586;51.124;4.182;2024-03-23T07:16:57;8.40;99.90
41904;DHT22;27586;51.124;4.182;2024-03-23T07:19:22;8.30;99.90
41904;DHT22;27586;51.124;4.182;2024-03-23T07:21:50;8.30;99.90
41904;DHT22;27586;51.124;4.182;2024-03-23T07:24:15;8.20;99.90
41904;DHT22;27586;51.124;4.182;2024-03-23T07:26:41;8.20;99.90
41904;DHT22;27586;51.124;4.182;2024-03-23T07:29:07;8.40;99.90
41904;DHT22;27586;51.124;4.182;2024-03-23T07:31:32;8.50;99.90
41904;DHT22;27586;51.124;4.182;2024-03-23T07:33:58;8.40;99.90
41904;DHT22;27586;51.124;4.182;2024-03-23T07:36:24;8.40;99.90
41904;DHT22;27586;51.124;4.182;2024-03-23T07:38:50;8.40;99.90
41904;DHT22;27586;51.124;4.182;2024-03-23T07:41:17;8.50;99.90
41904;DHT22;27586;51.124;4.182;2024-03-23T07:43:43;8.60;99.90
41904;DHT22;27586;51.124;4.182;2024-03-23T07:46:09;8.80;99.90
41904;DHT22;27586;51.124;4.182;2024-03-23T07:48:35;8.80;99.90
41904;DHT22;27586;51.124;4.182;2024-03-23T07:51:15;8.80;99.90
41904;DHT22;27586;51.124;4.182;2024-03-23T07:53:43;8.90;99.90
41904;DHT22;27586;51.124;4.182;2024-03-23T07:56:10;9.00;99.90
41904;DHT22;27586;51.124;4.182;2024-03-23T07:58:36;9.00;99.90
41904;DHT22;27586;51.124;4.182;2024-03-23T08:01:06;9.10;99.90
41904;DHT22;27586;51.124;4.182;2024-03-23T08:03:39;9.20;99.90
41904;DHT22;27586;51.124;4.182;2024-03-23T08:06:12;9.50;99.90
41904;DHT22;27586;51.124;4.182;2024-03-23T08:08:39;9.60;99.90
41904;DHT22;27586;51.124;4.182;2024-03-23T08:11:05;9.60;99.90
41904;DHT22;27586;51.124;4.182;2024-03-23T08:13:31;9.70;99.90
41904;DHT22;27586;51.124;4.182;2024-03-23T08:16:01;9.90;99.90
41904;DHT22;27586;51.124;4.182;2024-03-23T08:18:27;9.80;99.90
41904;DHT22;27586;51.124;4.182;2024-03-23T08:21:00;9.80;99.90
41904;DHT22;27586;51.124;4.182;2024-03-23T08:23:30;10.10;99.90
41904;DHT22;27586;51.124;4.182;2024-03-23T08:26:00;10.40;99.90
41904;DHT22;27586;51.124;4.182;2024-03-23T08:28:27;10.50;99.90
41904;DHT22;27586;51.124;4.182;2024-03-23T08:30:53;10.40;99.90
41904;DHT22;27586;51.124;4.182;2024-03-23T08:33:20;10.30;99.90
41904;DHT22;27586;51.124;4.182;2024-03-23T08:35:56;10.50;99.90
41904;DHT22;27586;51.124;4.182;2024-03-23T08:38:23;10.60;99.90
41904;DHT22;27586;51.124;4.182;2024-03-23T08:40:57;10.70;99.90
41904;DHT22;27586;51.124;4.182;2024-03-23T08:43:22;10.80;99.90
41904;DHT22;27586;51.124;4.182;2024-03-23T08:45:48;10.80;99.90
41904;DHT22;27586;51.124;4.182;2024-03-23T08:48:14;11.00;99.90
41904;DHT22;27586;51.124;4.182;2024-03-23T08:50:39;11.10;99.90
41904;DHT22;27586;51.124;4.182;2024-03-23T08:53:05;11.30;99.90
41904;DHT22;27586;51.124;4.182;2024-03-23T08:55:30;11.50;99.90
41904;DHT22;27586;51.124;4.182;2024-03-23T08:57:56;11.50;99.90
41904;DHT22;27586;51.124;4.182;2024-03-23T09:00:22;11.60;99.90
41904;DHT22;27586;51.124;4.182;2024-03-23T09:02:48;11.70;99.90
41904;DHT22;27586;51.124;4.182;2024-03-23T09:05:13;11.60;99.90
41904;DHT22;27586;51.124;4.182;2024-03-23T09:07:39;11.30;99.90
41904;DHT22;27586;51.124;4.182;2024-03-23T09:10:05;11.00;99.90
41904;DHT22;27586;51.124;4.182;2024-03-23T09:12:31;10.60;99.90
41904;DHT22;27586;51.124;4.182;2024-03-23T09:14:56;10.50;99.90
41904;DHT22;27586;51.124;4.182;2024-03-23T09:17:22;10.10;99.90
41904;DHT22;27586;51.124;4.182;2024-03-23T09:19:47;9.70;99.90
41904;DHT22;27586;51.124;4.182;2024-03-23T09:22:13;9.10;99.90
41904;DHT22;27586;51.124;4.182;2024-03-23T09:24:39;8.50;99.90
41904;DHT22;27586;51.124;4.182;2024-03-23T09:27:05;8.30;99.90
41904;DHT22;27586;51.124;4.182;2024-03-23T09:29:30;8.10;99.90
41904;DHT22;27586;51.124;4.182;2024-03-23T09:31:56;8.00;99.90
41904;DHT22;27586;51.124;4.182;2024-03-23T09:34:21;7.90;99.90
41904;DHT22;27586;51.124;4.182;2024-03-23T09:36:51;7.90;99.90
41904;DHT22;27586;51.124;4.182;2024-03-23T09:39:17;7.80;99.90
41904;DHT22;27586;51.124;4.182;2024-03-23T09:41:43;7.80;99.90
41904;DHT22;27586;51.124;4.182;2024-03-23T09:44:09;8.10;99.90
41904;DHT22;27586;51.124;4.182;2024-03-23T09:46:34;8.40;99.90
41904;DHT22;27586;51.124;4.182;2024-03-23T09:49:02;8.60;99.90
41904;DHT22;27586;51.124;4.182;2024-03-23T09:51:30;8.60;99.90
41904;DHT22;27586;51.124;4.182;2024-03-23T09:53:56;8.40;99.90
41904;DHT22;27586;51.124;4.182;2024-03-23T09:56:22;8.30;99.90
41904;DHT22;27586;51.124;4.182;2024-03-23T09:58:49;8.10;99.90
41904;DHT22;27586;51.124;4.182;2024-03-23T10:01:15;8.00;99.90
41904;DHT22;27586;51.124;4.182;2024-03-23T10:03:46;8.00;99.90
41904;DHT22;27586;51.124;4.182;2024-03-23T10:06:12;8.10;99.90
41904;DHT22;27586;51.124;4.182;2024-03-23T10:08:38;8.10;99.90
41904;DHT22;27586;51.124;4.182;2024-03-23T10:11:16;8.30;99.90
41904;DHT22;27586;51.124;4.182;2024-03-23T10:13:43;8.50;99.90
41904;DHT22;27586;51.124;4.182;2024-03-23T10:16:09;8.90;99.90
41904;DHT22;27586;51.124;4.182;2024-03-23T10:18:41;9.30;99.90
41904;DHT22;27586;51.124;4.182;2024-03-23T10:21:08;9.90;99.90
41904;DHT22;27586;51.124;4.182;2024-03-23T10:23:35;10.40;99.90
41904;DHT22;27586;51.124;4.182;2024-03-23T10:26:23;10.90;99.90
41904;DHT22;27586;51.124;4.182;2024-03-23T10:29:00;11.10;99.90
41904;DHT22;27586;51.124;4.182;2024-03-23T10:31:37;11.10;99.90
41904;DHT22;27586;51.124;4.182;2024-03-23T10:34:05;11.00;99.90
41904;DHT22;27586;51.124;4.182;2024-03-23T10:36:31;11.10;99.90
41904;DHT22;27586;51.124;4.182;2024-03-23T10:38:56;11.10;99.90
41904;DHT22;27586;51.124;4.182;2024-03-23T10:41:28;10.80;99.90
41904;DHT22;27586;51.124;4.182;2024-03-23T10:43:55;10.60;99.90
41904;DHT22;27586;51.124;4.182;2024-03-23T10:46:23;10.40;99.90
41904;DHT22;27586;51.124;4.182;2024-03-23T10:48:49;10.20;99.90
41904;DHT22;27586;51.124;4.182;2024-03-23T10:51:15;10.10;99.90
41904;DHT22;27586;51.124;4.182;2024-03-23T10:53:41;10.50;99.90
41904;DHT22;27586;51.124;4.182;2024-03-23T10:56:07;10.90;99.90
41904;DHT22;27586;51.124;4.182;2024-03-23T10:58:46;11.10;99.90
41904;DHT22;27586;51.124;4.182;2024-03-23T11:01:13;11.20;99.90
41904;DHT22;27586;51.124;4.182;2024-03-23T11:03:45;11.60;99.90
41904;DHT22;27586;51.124;4.182;2024-03-23T11:06:34;11.80;99.90
41904;DHT22;27586;51.124;4.182;2024-03-23T11:09:00;12.00;99.90
41904;DHT22;27586;51.124;4.182;2024-03-23T11:11:26;11.90;99.90
41904;DHT22;27586;51.124;4.182;2024-03-23T11:13:53;11.80;99.90
41904;DHT22;27586;51.124;4.182;2024-03-23T11:16:26;11.70;99.90
41904;DHT22;27586;51.124;4.182;2024-03-23T11:22:00;11.00;99.90
41904;DHT22;27586;51.124;4.182;2024-03-23T11:24:26;10.70;99.90
41904;DHT22;27586;51.124;4.182;2024-03-23T11:26:52;10.50;99.90
41904;DHT22;27586;51.124;4.182;2024-03-23T11:29:18;10.60;99.90
41904;DHT22;27586;51.124;4.182;2024-03-23T11:31:53;10.40;99.90
41904;DHT22;27586;51.124;4.182;2024-03-23T11:34:19;10.20;99.90
41904;DHT22;27586;51.124;4.182;2024-03-23T11:36:46;10.10;99.90
41904;DHT22;27586;51.124;4.182;2024-03-23T11:39:18;9.70;99.90
41904;DHT22;27586;51.124;4.182;2024-03-23T11:41:49;9.50;99.90
41904;DHT22;27586;51.124;4.182;2024-03-23T11:44:19;9.40;99.90
41904;DHT22;27586;51.124;4.182;2024-03-23T11:46:45;9.40;99.90
41904;DHT22;27586;51.124;4.182;2024-03-23T11:49:24;9.30;99.90
41904;DHT22;27586;51.124;4.182;2024-03-23T11:51:51;9.50;99.90
41904;DHT22;27586;51.124;4.182;2024-03-23T11:54:21;9.60;99.90
41904;DHT22;27586;51.124;4.182;2024-03-23T11:57:01;9.90;99.90
41904;DHT22;27586;51.124;4.182;2024-03-23T11:59:33;10.10;99.90
41904;DHT22;27586;51.124;4.182;2024-03-23T12:01:59;10.10;99.90
41904;DHT22;27586;51.124;4.182;2024-03-23T12:04:28;9.90;99.90
41904;DHT22;27586;51.124;4.182;2024-03-23T12:07:16;9.40;99.90
41904;DHT22;27586;51.124;4.182;2024-03-23T12:09:46;9.10;99.90
41904;DHT22;27586;51.124;4.182;2024-03-23T12:12:18;8.90;99.90
41904;DHT22;27586;51.124;4.182;2024-03-23T12:14:45;8.80;99.90
41904;DHT22;27586;51.124;4.182;2024-03-23T12:17:14;8.80;99.90
41904;DHT22;27586;51.124;4.182;2024-03-23T12:19:41;9.10;99.90
41904;DHT22;27586;51.124;4.182;2024-03-23T12:22:08;9.40;99.90
41904;DHT22;27586;51.124;4.182;2024-03-23T12:24:34;9.80;99.90
41904;DHT22;27586;51.124;4.182;2024-03-23T12:27:01;10.10;99.90
41904;DHT22;27586;51.124;4.182;2024-03-23T12:29:30;10.40;99.90
41904;DHT22;27586;51.124;4.182;2024-03-23T12:32:02;10.70;99.90
41904;DHT22;27586;51.124;4.182;2024-03-23T12:34:29;10.70;99.90
41904;DHT22;27586;51.124;4.182;2024-03-23T12:36:56;10.70;99.90
41904;DHT22;27586;51.124;4.182;2024-03-23T12:39:22;10.90;99.90
41904;DHT22;27586;51.124;4.182;2024-03-23T12:41:48;10.90;99.90
41904;DHT22;27586;51.124;4.182;2024-03-23T12:44:15;10.80;99.90
41904;DHT22;27586;51.124;4.182;2024-03-23T12:46:41;10.50;99.90
41904;DHT22;27586;51.124;4.182;2024-03-23T12:49:07;10.40;99.90
41904;DHT22;27586;51.124;4.182;2024-03-23T12:51:33;10.20;99.90
41904;DHT22;27586;51.124;4.182;2024-03-23T12:53:59;10.20;99.90
41904;DHT22;27586;51.124;4.182;2024-03-23T12:56:25;10.10;99.90
41904;DHT22;27586;51.124;4.182;2024-03-23T12:58:51;10.20;99.90
41904;DHT22;27586;51.124;4.182;2024-03-23T13:01:17;10.10;99.90
41904;DHT22;27586;51.124;4.182;2024-03-23T13:03:43;9.90;99.90
41904;DHT22;27586;51.124;4.182;2024-03-23T13:06:10;9.70;99.90
41904;DHT22;27586;51.124;4.182;2024-03-23T13:08:36;9.50;99.90
41904;DHT22;27586;51.124;4.182;2024-03-23T13:11:01;9.10;99.90
41904;DHT22;27586;51.124;4.182;2024-03-23T13:13:27;9.00;99.90
41904;DHT22;27586;51.124;4.182;2024-03-23T13:15:53;8.50;99.90
41904;DHT22;27586;51.124;4.182;2024-03-23T13:18:18;8.10;99.90
41904;DHT22;27586;51.124;4.182;2024-03-23T13:20:44;7.80;99.90
41904;DHT22;27586;51.124;4.182;2024-03-23T13:23:10;7.50;99.90
41904;DHT22;27586;51.124;4.182;2024-03-23T13:25:35;7.30;99.90
41904;DHT22;27586;51.124;4.182;2024-03-23T13:28:02;7.30;99.90
41904;DHT22;27586;51.124;4.182;2024-03-23T13:30:29;7.40;99.90
41904;DHT22;27586;51.124;4.182;2024-03-23T13:32:55;7.50;99.90
41904;DHT22;27586;51.124;4.182;2024-03-23T13:35:21;7.70;99.90
41904;DHT22;27586;51.124;4.182;2024-03-23T13:37:46;8.00;99.90
41904;DHT22;27586;51.124;4.182;2024-03-23T13:40:12;8.20;99.90
41904;DHT22;27586;51.124;4.182;2024-03-23T13:42:38;8.50;99.90
41904;DHT22;27586;51.124;4.182;2024-03-23T13:45:04;8.80;99.90
41904;DHT22;27586;51.124;4.182;2024-03-23T13:47:29;9.20;99.90
41904;DHT22;27586;51.124;4.182;2024-03-23T13:49:55;9.60;99.90
41904;DHT22;27586;51.124;4.182;2024-03-23T13:52:21;9.80;99.90
41904;DHT22;27586;51.124;4.182;2024-03-23T13:54:51;10.00;99.90
41904;DHT22;27586;51.124;4.182;2024-03-23T13:57:17;10.00;99.90
41904;DHT22;27586;51.124;4.182;2024-03-23T13:59:45;10.00;99.90
41904;DHT22;27586;51.124;4.182;2024-03-23T14:02:11;10.00;99.90
41904;DHT22;27586;51.124;4.182;2024-03-23T14:04:40;9.80;99.90
41904;DHT22;27586;51.124;4.182;2024-03-23T14:07:05;9.90;99.90
41904;DHT22;27586;51.124;4.182;2024-03-23T14:09:32;9.90;99.90
41904;DHT22;27586;51.124;4.182;2024-03-23T14:11:58;10.00;99.90
41904;DHT22;27586;51.124;4.182;2024-03-23T14:14:25;10.00;99.90
41904;DHT22;27586;51.124;4.182;2024-03-23T14:16:51;10.10;99.90
41904;DHT22;27586;51.124;4.182;2024-03-23T14:19:16;10.10;99.90
41904;DHT22;27586;51.124;4.182;2024-03-23T14:21:42;10.20;99.90
41904;DHT22;27586;51.124;4.182;2024-03-23T14:24:08;10.10;99.90
41904;DHT22;27586;51.124;4.182;2024-03-23T14:26:34;10.10;99.90
41904;DHT22;27586;51.124;4.182;2024-03-23T14:29:01;10.00;99.90
41904;DHT22;27586;51.124;4.182;2024-03-23T14:31:26;9.90;99.90
41904;DHT22;27586;51.124;4.182;2024-03-23T14:33:52;9.70;99.90
41904;DHT22;27586;51.124;4.182;2024-03-23T14:36:17;9.80;99.90
41904;DHT22;27586;51.124;4.182;2024-03-23T14:38:52;9.80;99.90
41904;DHT22;27586;51.124;4.182;2024-03-23T14:41:18;9.90;99.90
41904;DHT22;27586;51.124;4.182;2024-03-23T14:43:43;10.10;99.90
41904;DHT22;27586;51.124;4.182;2024-03-23T14:46:12;10.10;99.90
41904;DHT22;27586;51.124;4.182;2024-03-23T14:48:44;10.10;99.90
41904;DHT22;27586;51.124;4.182;2024-03-23T14:51:11;10.00;99.90
41904;DHT22;27586;51.124;4.182;2024-03-23T14:53:44;9.80;99.90
41904;DHT22;27586;51.124;4.182;2024-03-23T14:56:10;9.80;99.90
41904;DHT22;27586;51.124;4.182;2024-03-23T14:58:38;9.70;99.90
41904;DHT22;27586;51.124;4.182;2024-03-23T15:01:05;9.80;99.90
41904;DHT22;27586;51.124;4.182;2024-03-23T15:03:34;9.80;99.90
41904;DHT22;27586;51.124;4.182;2024-03-23T15:06:00;9.80;99.90
41904;DHT22;27586;51.124;4.182;2024-03-23T15:08:27;9.90;99.90
41904;DHT22;27586;51.124;4.182;2024-03-23T15:10:59;9.80;99.90
41904;DHT22;27586;51.124;4.182;2024-03-23T15:13:25;9.80;99.90
41904;DHT22;27586;51.124;4.182;2024-03-23T15:15:50;9.80;99.90
41904;DHT22;27586;51.124;4.182;2024-03-23T15:18:17;9.60;99.90
41904;DHT22;27586;51.124;4.182;2024-03-23T15:20:57;9.50;99.90
41904;DHT22;27586;51.124;4.182;2024-03-23T15:23:23;9.60;99.90
41904;DHT22;27586;51.124;4.182;2024-03-23T15:26:00;9.60;99.90
41904;DHT22;27586;51.124;4.182;2024-03-23T15:28:26;9.60;99.90
41904;DHT22;27586;51.124;4.182;2024-03-23T15:31:05;9.60;99.90
41904;DHT22;27586;51.124;4.182;2024-03-23T15:33:32;9.60;99.90
41904;DHT22;27586;51.124;4.182;2024-03-23T15:36:06;9.60;99.90
41904;DHT22;27586;51.124;4.182;2024-03-23T15:38:32;9.50;99.90
41904;DHT22;27586;51.124;4.182;2024-03-23T15:40:59;9.50;99.90
41904;DHT22;27586;51.124;4.182;2024-03-23T15:43:25;9.50;99.90
41904;DHT22;27586;51.124;4.182;2024-03-23T15:45:57;9.60;99.90
41904;DHT22;27586;51.124;4.182;2024-03-23T15:48:25;9.50;99.90
41904;DHT22;27586;51.124;4.182;2024-03-23T15:50:53;9.40;99.90
41904;DHT22;27586;51.124;4.182;2024-03-23T15:53:23;9.40;99.90
41904;DHT22;27586;51.124;4.182;2024-03-23T15:56:00;9.40;99.90
41904;DHT22;27586;51.124;4.182;2024-03-23T15:58:26;9.30;99.90
41904;DHT22;27586;51.124;4.182;2024-03-23T16:03:22;9.10;99.90
41904;DHT22;27586;51.124;4.182;2024-03-23T16:05:55;9.00;99.90
41904;DHT22;27586;51.124;4.182;2024-03-23T16:08:22;8.90;99.90
41904;DHT22;27586;51.124;4.182;2024-03-23T16:10:48;8.90;99.90
41904;DHT22;27586;51.124;4.182;2024-03-23T16:13:14;8.90;99.90
41904;DHT22;27586;51.124;4.182;2024-03-23T16:15:39;8.90;99.90
41904;DHT22;27586;51.124;4.182;2024-03-23T16:18:05;8.90;99.90
41904;DHT22;27586;51.124;4.182;2024-03-23T16:20:31;8.80;99.90
41904;DHT22;27586;51.124;4.182;2024-03-23T16:22:59;8.80;99.90
41904;DHT22;27586;51.124;4.182;2024-03-23T16:25:25;8.90;99.90
41904;DHT22;27586;51.124;4.182;2024-03-23T16:27:51;8.80;99.90
41904;DHT22;27586;51.124;4.182;2024-03-23T16:30:16;8.60;99.90
41904;DHT22;27586;51.124;4.182;2024-03-23T16:32:42;8.40;99.90
41904;DHT22;27586;51.124;4.182;2024-03-23T16:35:08;8.20;99.90
41904;DHT22;27586;51.124;4.182;2024-03-23T16:37:37;8.10;99.90
41904;DHT22;27586;51.124;4.182;2024-03-23T16:40:02;8.20;99.90